Weather at East Midlands Airport

Public forecast

Using degrees Celsius for public forecast. Weather courtesy of forecast.io.

Current aviation weather report (METAR) for East Midlands Airport

Report is more than 6 hours old.

2022/11/14 15:20 (retrieved 2 years ago)

EGNX 141520Z 09004KT 2200 BR OVC003 11/11 Q1005

Aviation forecast (TAF) for East Midlands Airport

Forecast is more than 12 hours old.

2023/02/22 18:00 (retrieved 1 year ago)

TAF EGNX 221657Z 2218/2318 28009KT 9999 SCT030 BECMG 2218/2221 01010KT PROB30 TEMPO 2218/2220 6000 SHRA BKN012 TEMPO 2220/2301 6000 SHRA RA BKN012 PROB30 TEMPO 2301/2305 6000 SHRA RA BKN008